Time;durP1;ratioP1;P1;durP2;ratioP2;P2;SDS_P1;SDS_P2;PMS_P1;PMS_P2;Temp;Humidity;BMP_temperature;BMP_pressure;BME280_temperature;BME280_humidity;BME280_pressure;Samples;Min_cycle;Max_cycle;Signal;HPM_P1;HPM_P2
2022/06/10 00:02:03;;;;;;;;;;;;;;;14.20;100.00;101941.50;5002776;28;19929;-34
2022/06/10 00:04:32;;;;;;;;;;;;;;;14.18;100.00;101944.63;5002939;28;19955;-32
2022/06/10 00:07:01;;;;;;;;;;;;;;;14.17;100.00;101942.97;5004444;28;19925;-31
2022/06/10 00:09:29;;;;;;;;;;;;;;;14.16;100.00;101949.72;5002177;28;19928;-30
2022/06/10 00:11:57;;;;;;;;;;;;;;;14.16;100.00;101940.44;5004133;28;20019;-34
2022/06/10 00:14:24;;;;;;;;;;;;;;;14.14;100.00;101937.94;5002862;28;19980;-33
2022/06/10 00:16:52;;;;;;;;;;;;;;;14.13;100.00;101937.09;5003367;28;20008;-32
2022/06/10 00:19:19;;;;;;;;;;;;;;;14.14;100.00;101935.13;5017828;28;19929;-29
2022/06/10 00:21:47;;;;;;;;;;;;;;;14.13;100.00;101937.09;5003972;28;19929;-32
2022/06/10 00:24:16;;;;;;;;;;;;;;;14.14;100.00;101938.78;5003993;28;19921;-33
2022/06/10 00:26:44;;;;;;;;;;;;;;;14.15;100.00;101939.63;5004810;28;20008;-33
2022/06/10 00:29:11;;;;;;;;;;;;;;;14.16;100.00;101932.03;5004576;28;19922;-34
2022/06/10 00:31:39;;;;;;;;;;;;;;;14.14;100.00;101935.97;5003852;28;19928;-31
2022/06/10 00:34:06;;;;;;;;;;;;;;;14.14;100.00;101927.53;5003484;28;19922;-34
2022/06/10 00:36:35;;;;;;;;;;;;;;;14.14;100.00;101919.13;4999889;28;19953;-30
2022/06/10 00:39:03;;;;;;;;;;;;;;;14.13;100.00;101930.66;4998652;28;19932;-33
2022/06/10 00:41:32;;;;;;;;;;;;;;;14.12;100.00;101929.81;4999517;28;19922;-32
2022/06/10 00:44:00;;;;;;;;;;;;;;;14.12;100.00;101932.63;4998825;28;19928;-33
2022/06/10 00:46:31;;;;;;;;;;;;;;;14.12;100.00;101935.44;4999602;28;20468;-33
2022/06/10 00:49:03;;;;;;;;;;;;;;;14.12;100.00;101935.44;5003952;28;19927;-30
2022/06/10 00:51:34;;;;;;;;;;;;;;;14.11;100.00;101928.13;5002568;28;19925;-32
2022/06/10 00:54:07;;;;;;;;;;;;;;;14.13;100.00;101930.66;5003420;28;20029;-33
2022/06/10 00:56:37;;;;;;;;;;;;;;;14.13;100.00;101933.47;5002617;28;19921;-32
2022/06/10 00:59:09;;;;;;;;;;;;;;;14.14;100.00;101935.97;5003005;28;20362;-33
2022/06/10 01:01:37;;;;;;;;;;;;;;;14.15;100.00;101942.41;5002539;28;19979;-30
2022/06/10 01:04:05;;;;;;;;;;;;;;;14.16;100.00;101941.28;5003561;28;19968;-32
2022/06/10 01:06:33;;;;;;;;;;;;;;;14.16;100.00;101935.69;5001569;28;19950;-32
2022/06/10 01:09:02;;;;;;;;;;;;;;;14.16;100.00;101938.47;5003418;28;20297;-31
2022/06/10 01:11:42;;;;;;;;;;;;;;;14.18;100.00;101946.59;5002132;28;19921;-34
2022/06/10 01:14:16;;;;;;;;;;;;;;;14.20;100.00;101947.13;5002748;28;19923;-29
2022/06/10 01:16:48;;;;;;;;;;;;;;;14.22;100.00;101942.03;5002891;28;19921;-34
2022/06/10 01:19:25;;;;;;;;;;;;;;;14.25;100.00;101944.25;5002604;28;19922;-34
2022/06/10 01:22:06;;;;;;;;;;;;;;;14.28;100.00;101930.47;4998284;28;19944;-30
2022/06/10 01:24:47;;;;;;;;;;;;;;;14.31;100.00;101938.31;4998977;28;19921;-31
2022/06/10 01:27:49;;;;;;;;;;;;;;;14.34;100.00;101940.53;5001545;28;19976;-35
2022/06/10 01:30:21;;;;;;;;;;;;;;;14.40;100.00;101936.53;4994885;28;19922;-29
2022/06/10 01:32:57;;;;;;;;;;;;;;;14.45;100.00;101938.44;5004860;28;20016;-30
2022/06/10 01:35:30;;;;;;;;;;;;;;;14.50;100.00;101935.59;5003018;28;19925;-31
2022/06/10 01:37:59;;;;;;;;;;;;;;;14.54;100.00;101936.66;5004832;28;19928;-32
2022/06/10 01:40:34;;;;;;;;;;;;;;;14.58;100.00;101926.50;5002570;28;19925;-32
2022/06/10 01:43:03;;;;;;;;;;;;;;;14.62;100.00;101930.38;5004759;28;19921;-31
2022/06/10 01:45:35;;;;;;;;;;;;;;;14.65;100.00;101926.97;5003800;28;19929;-32
2022/06/10 01:48:07;;;;;;;;;;;;;;;14.69;100.00;101930.00;5003680;28;19929;-33
2022/06/10 01:50:41;;;;;;;;;;;;;;;14.71;100.00;101927.75;5003461;28;19929;-31
2022/06/10 01:53:12;;;;;;;;;;;;;;;14.74;100.00;101933.59;5004078;28;20374;-33
2022/06/10 01:55:45;;;;;;;;;;;;;;;14.76;100.00;101930.50;5002606;28;19983;-33
2022/06/10 01:58:17;;;;;;;;;;;;;;;14.79;100.00;101936.31;5004377;28;19922;-32
2022/06/10 02:00:48;;;;;;;;;;;;;;;14.81;100.00;101934.03;5003011;28;20379;-33
2022/06/10 02:03:21;;;;;;;;;;;;;;;14.82;100.00;101934.88;5003310;28;19922;-32
2022/06/10 02:05:51;;;;;;;;;;;;;;;14.84;100.00;101929.81;5003199;28;20302;-33
2022/06/10 02:08:21;;;;;;;;;;;;;;;14.83;100.00;101926.16;5003207;28;19933;-32
2022/06/10 02:10:53;;;;;;;;;;;;;;;14.86;100.00;101932.31;5002680;28;19936;-30
2022/06/10 02:13:23;;;;;;;;;;;;;;;14.87;100.00;101917.13;5004085;28;19921;-31
2022/06/10 02:15:53;;;;;;;;;;;;;;;14.89;100.00;101920.47;5001981;28;19947;-32
2022/06/10 02:18:24;;;;;;;;;;;;;;;14.90;100.00;101922.16;5004008;28;19922;-34
2022/06/10 02:20:55;;;;;;;;;;;;;;;14.91;100.00;101924.66;5002710;28;19955;-31
2022/06/10 02:23:26;;;;;;;;;;;;;;;14.93;100.00;101922.38;5008017;28;20297;-31
2022/06/10 02:25:56;;;;;;;;;;;;;;;14.94;100.00;101912.81;5002333;28;19921;-30
2022/06/10 02:28:25;;;;;;;;;;;;;;;14.98;100.00;101918.66;5002152;28;19928;-29
2022/06/10 02:30:55;;;;;;;;;;;;;;;15.00;100.00;101920.00;5001114;28;19925;-31
2022/06/10 02:33:24;;;;;;;;;;;;;;;15.01;100.00;101918.88;5001658;28;19965;-33
2022/06/10 02:35:56;;;;;;;;;;;;;;;15.03;100.00;101921.38;5001644;28;19925;-32
2022/06/10 02:38:27;;;;;;;;;;;;;;;15.03;100.00;101921.38;5001636;28;19921;-31
2022/06/10 02:41:00;;;;;;;;;;;;;;;15.00;100.00;101924.78;5000987;28;20271;-32
2022/06/10 02:43:31;;;;;;;;;;;;;;;14.98;100.00;101932.72;5004538;28;20428;-32
2022/06/10 02:46:03;;;;;;;;;;;;;;;14.95;100.00;101930.50;5001988;28;19933;-35
2022/06/10 02:48:34;;;;;;;;;;;;;;;14.93;100.00;101932.78;5002258;28;20024;-30
2022/06/10 02:51:01;;;;;;;;;;;;;;;14.90;100.00;101922.97;5000563;28;19999;-31
2022/06/10 02:53:29;;;;;;;;;;;;;;;14.88;100.00;101930.03;5000968;28;19927;-30
2022/06/10 02:55:57;;;;;;;;;;;;;;;14.87;100.00;101932.00;5001303;28;19928;-30
2022/06/10 03:01:20;;;;;;;;;;;;;;;14.82;100.00;101930.09;5001116;28;19922;-31
2022/06/10 03:04:04;;;;;;;;;;;;;;;14.77;100.00;101944.25;5000840;28;19921;-30
2022/06/10 03:06:36;;;;;;;;;;;;;;;14.76;100.00;101930.50;5000458;28;19968;-31
2022/06/10 03:09:09;;;;;;;;;;;;;;;14.74;100.00;101936.41;5001095;28;19925;-29
2022/06/10 03:11:41;;;;;;;;;;;;;;;14.72;100.00;101933.06;5014968;28;19922;-32
2022/06/10 03:14:11;;;;;;;;;;;;;;;14.71;100.00;101925.78;5000522;28;19932;-28
2022/06/10 03:17:00;;;;;;;;;;;;;;;14.68;100.00;101933.97;5000777;28;19957;-32
2022/06/10 03:19:35;;;;;;;;;;;;;;;14.68;100.00;101925.53;5004775;28;20354;-31
2022/06/10 03:22:08;;;;;;;;;;;;;;;14.68;100.00;101933.97;5004581;28;20244;-31
2022/06/10 03:24:39;;;;;;;;;;;;;;;14.67;100.00;101924.69;5005484;28;20024;-34
2022/06/10 03:27:11;;;;;;;;;;;;;;;14.68;100.00;101926.38;5004771;28;19932;-30
2022/06/10 03:29:44;;;;;;;;;;;;;;;14.69;100.00;101927.19;5005536;28;20052;-34
2022/06/10 03:32:13;;;;;;;;;;;;;;;14.70;100.00;101929.72;5003813;28;19921;-37
2022/06/10 03:34:44;;;;;;;;;;;;;;;14.72;100.00;101924.63;5003395;28;19921;-31
2022/06/10 03:37:12;;;;;;;;;;;;;;;14.75;100.00;101929.66;5003857;28;19932;-33
2022/06/10 03:39:41;;;;;;;;;;;;;;;14.79;100.00;101927.06;5003056;28;19925;-33
2022/06/10 03:42:14;;;;;;;;;;;;;;;14.85;100.00;101933.44;5002071;28;20000;-30
2022/06/10 03:44:42;;;;;;;;;;;;;;;14.91;100.00;101930.28;5003122;28;19925;-31
2022/06/10 03:47:20;;;;;;;;;;;;;;;14.96;100.00;101932.19;5001175;28;20046;-32
2022/06/10 03:49:51;;;;;;;;;;;;;;;15.00;100.00;101936.88;5003918;28;19925;-32
2022/06/10 03:52:20;;;;;;;;;;;;;;;15.02;100.00;101939.38;5003473;28;19960;-30
2022/06/10 03:54:48;;;;;;;;;;;;;;;15.07;100.00;101936.50;5003484;28;20125;-34
2022/06/10 03:57:17;;;;;;;;;;;;;;;15.08;100.00;101935.38;5002971;28;19929;-31
2022/06/10 03:59:44;;;;;;;;;;;;;;;15.09;100.00;101935.06;5004135;28;19928;-31
2022/06/10 04:02:12;;;;;;;;;;;;;;;15.12;100.00;101942.06;5002357;28;20024;-30
2022/06/10 04:04:42;;;;;;;;;;;;;;;15.15;100.00;101935.84;5011025;28;19922;-30
2022/06/10 04:07:12;;;;;;;;;;;;;;;15.17;100.00;101936.38;5003207;28;19922;-32
2022/06/10 04:09:39;;;;;;;;;;;;;;;15.17;100.00;101939.19;5003264;28;20468;-33
2022/06/10 04:12:08;;;;;;;;;;;;;;;15.21;100.00;101936.56;5003087;28;20378;-31
2022/06/10 04:14:35;;;;;;;;;;;;;;;15.23;100.00;101940.75;5003880;28;19922;-29
2022/06/10 04:17:03;;;;;;;;;;;;;;;15.25;100.00;101934.84;5003776;28;19960;-33
2022/06/10 04:19:31;;;;;;;;;;;;;;;15.27;100.00;101949.44;5005032;28;20023;-31
2022/06/10 04:21:58;;;;;;;;;;;;;;;15.27;100.00;101939.00;5004038;28;20382;-29
2022/06/10 04:24:27;;;;;;;;;;;;;;;15.28;100.00;101951.09;4999863;28;19932;-32
2022/06/10 04:26:55;;;;;;;;;;;;;;;15.31;100.00;101948.53;5003399;28;19922;-30
2022/06/10 04:29:23;;;;;;;;;;;;;;;15.30;100.00;101949.66;4997859;28;20398;-31
2022/06/10 04:31:50;;;;;;;;;;;;;;;15.33;100.00;101959.47;5000146;28;19968;-32
2022/06/10 04:34:18;;;;;;;;;;;;;;;15.32;100.00;101955.81;4999707;28;19928;-34
2022/06/10 04:36:46;;;;;;;;;;;;;;;15.32;100.00;101958.63;4998493;28;19926;-34
2022/06/10 04:39:14;;;;;;;;;;;;;;;15.32;100.00;101957.78;4999706;28;19921;-29
2022/06/10 04:41:43;;;;;;;;;;;;;;;15.30;100.00;101955.28;4999782;28;19929;-33
2022/06/10 04:44:10;;;;;;;;;;;;;;;15.29;100.00;101958.41;5001610;28;20386;-33
2022/06/10 04:46:44;;;;;;;;;;;;;;;15.23;100.00;101953.97;5003752;28;20032;-31
2022/06/10 04:49:12;;;;;;;;;;;;;;;15.23;100.00;101951.16;5002552;28;20428;-31
2022/06/10 04:51:40;;;;;;;;;;;;;;;15.22;100.00;101952.31;5018012;28;19922;-31
2022/06/10 04:54:08;;;;;;;;;;;;;;;15.19;100.00;101950.94;5002278;28;20377;-32
2022/06/10 04:56:37;;;;;;;;;;;;;;;15.20;100.00;101951.78;5003362;28;19921;-33
2022/06/10 04:59:06;;;;;;;;;;;;;;;15.19;100.00;101959.38;5001758;28;19927;-30
2022/06/10 05:01:34;;;;;;;;;;;;;;;15.19;100.00;101948.13;5003439;28;19929;-30
2022/06/10 05:04:01;;;;;;;;;;;;;;;15.19;100.00;101953.75;5002737;28;19933;-32
2022/06/10 05:06:29;;;;;;;;;;;;;;;15.16;100.00;101955.22;5007184;28;19928;-33
2022/06/10 05:08:57;;;;;;;;;;;;;;;15.14;100.00;101951.03;5006384;28;19925;-33
2022/06/10 05:11:24;;;;;;;;;;;;;;;15.13;100.00;101954.97;5007155;28;20413;-33
2022/06/10 05:13:53;;;;;;;;;;;;;;;15.12;100.00;101953.31;5008559;28;20408;-34
2022/06/10 05:16:25;;;;;;;;;;;;;;;15.12;100.00;101953.31;4999377;28;19925;-30
2022/06/10 05:18:54;;;;;;;;;;;;;;;15.13;100.00;101960.59;4999383;28;19931;-34
2022/06/10 05:21:21;;;;;;;;;;;;;;;15.11;100.00;101955.28;5001654;28;19925;-32
2022/06/10 05:23:49;;;;;;;;;;;;;;;15.11;100.00;101954.44;5002932;28;19944;-33
2022/06/10 05:26:17;;;;;;;;;;;;;;;15.08;100.00;101963.47;5005846;28;19925;-33
2022/06/10 05:28:46;;;;;;;;;;;;;;;15.08;100.00;101952.25;5006949;28;20281;-31
2022/06/10 05:31:13;;;;;;;;;;;;;;;15.11;100.00;101954.44;5022006;28;20024;-31
2022/06/10 05:36:27;;;;;;;;;;;;;;;15.17;100.00;101956.06;5001873;28;20260;-29
2022/06/10 05:38:55;;;;;;;;;;;;;;;15.17;100.00;101961.69;5001413;28;19928;-31
2022/06/10 05:44:09;;;;;;;;;;;;;;;15.19;100.00;101959.38;5001410;28;20020;-30
2022/06/10 05:46:37;;;;;;;;;;;;;;;15.21;100.00;101970.31;5000205;28;19980;-31
2022/06/10 05:49:06;;;;;;;;;;;;;;;15.20;100.00;101972.28;5001228;28;19928;-32
2022/06/10 05:51:34;;;;;;;;;;;;;;;15.18;100.00;101970.94;5001769;28;19926;-30
2022/06/10 05:54:03;;;;;;;;;;;;;;;15.19;100.00;101973.44;5001297;28;19936;-32
2022/06/10 05:56:30;;;;;;;;;;;;;;;15.19;100.00;101976.25;5002895;28;19972;-36
2022/06/10 05:58:58;;;;;;;;;;;;;;;15.21;100.00;101990.84;5001865;28;19922;-32
2022/06/10 06:01:26;;;;;;;;;;;;;;;15.19;100.00;101987.50;5002315;28;19925;-33
2022/06/10 06:03:53;;;;;;;;;;;;;;;15.19;100.00;101986.69;5001724;28;19922;-31
2022/06/10 06:06:23;;;;;;;;;;;;;;;15.18;100.00;101985.84;5003012;28;19980;-32
2022/06/10 06:08:50;;;;;;;;;;;;;;;15.18;100.00;101987.81;5001032;28;20389;-31
2022/06/10 06:11:18;;;;;;;;;;;;;;;15.16;100.00;101986.16;5002777;28;19925;-33
2022/06/10 06:13:45;;;;;;;;;;;;;;;15.15;100.00;101992.06;5001911;28;20154;-30
2022/06/10 06:16:14;;;;;;;;;;;;;;;15.13;100.00;101994.34;5001896;28;19931;-32
2022/06/10 06:18:42;;;;;;;;;;;;;;;15.11;100.00;101991.84;4999753;28;19979;-32
2022/06/10 06:21:09;;;;;;;;;;;;;;;15.12;100.00;101999.13;5001233;28;19928;-32
2022/06/10 06:23:38;;;;;;;;;;;;;;;15.14;100.00;101999.66;5007195;28;20477;-32
2022/06/10 06:26:06;;;;;;;;;;;;;;;15.13;100.00;101998.00;5000481;28;19932;-29
2022/06/10 06:28:34;;;;;;;;;;;;;;;15.14;100.00;102010.91;4999889;28;20338;-32
2022/06/10 06:31:01;;;;;;;;;;;;;;;15.12;100.00;102001.94;5000635;28;20268;-34
2022/06/10 06:33:29;;;;;;;;;;;;;;;15.12;100.00;102003.91;5008315;28;19944;-33
2022/06/10 06:35:56;;;;;;;;;;;;;;;15.13;100.00;102000.81;4999452;28;19921;-31
2022/06/10 06:38:26;;;;;;;;;;;;;;;15.15;100.00;102006.97;4999284;28;19930;-33
2022/06/10 06:40:55;;;;;;;;;;;;;;;15.21;100.00;102002.09;4999301;28;20386;-31
2022/06/10 06:43:22;;;;;;;;;;;;;;;15.24;100.00;102004.28;4999005;28;19921;-33
2022/06/10 06:45:50;;;;;;;;;;;;;;;15.29;100.00;102009.03;4998271;28;19926;-30
2022/06/10 06:48:18;;;;;;;;;;;;;;;15.34;100.00;102015.41;5000823;28;20378;-31
2022/06/10 06:50:47;;;;;;;;;;;;;;;15.34;100.00;102006.16;5001370;28;19925;-34
2022/06/10 06:53:14;;;;;;;;;;;;;;;15.36;100.00;102013.16;4997179;28;20283;-32
2022/06/10 06:55:43;;;;;;;;;;;;;;;15.39;100.00;102018.13;5000626;28;19929;-32
2022/06/10 06:58:13;;;;;;;;;;;;;;;15.42;100.00;102022.31;5000794;28;19921;-33
2022/06/10 07:00:46;;;;;;;;;;;;;;;15.41;100.00;102021.47;5000743;28;19932;-33
2022/06/10 07:03:14;;;;;;;;;;;;;;;15.41;100.00;102024.28;5002398;28;19960;-30
2022/06/10 07:05:44;;;;;;;;;;;;;;;15.41;100.00;102018.66;4992349;28;19922;-31
2022/06/10 07:08:12;;;;;;;;;;;;;;;15.44;100.00;102014.41;5001791;28;20403;-29
2022/06/10 07:10:40;;;;;;;;;;;;;;;15.48;100.00;102018.31;4999685;28;19927;-30
2022/06/10 07:13:08;;;;;;;;;;;;;;;15.57;100.00;102022.16;5001558;28;19932;-29
2022/06/10 07:15:39;;;;;;;;;;;;;;;15.61;100.00;102019.53;4999998;28;19925;-30
2022/06/10 07:18:07;;;;;;;;;;;;;;;15.68;100.00;102031.25;4999665;28;19936;-30
2022/06/10 07:20:36;;;;;;;;;;;;;;;15.74;100.00;102030.88;4999710;28;19936;-30
2022/06/10 07:23:03;;;;;;;;;;;;;;;15.82;100.00;102029.31;5000696;28;19921;-30
2022/06/10 07:25:32;;;;;;;;;;;;;;;15.91;100.00;102027.50;4998607;28;19956;-30
2022/06/10 07:27:59;;;;;;;;;;;;;;;15.94;100.00;102038.16;5000246;28;19925;-30
2022/06/10 07:30:29;;;;;;;;;;;;;;;16.00;100.00;102028.47;4998099;28;20004;-30
2022/06/10 07:33:00;;;;;;;;;;;;;;;16.04;100.00;102029.53;4996177;28;19927;-30
2022/06/10 07:35:29;;;;;;;;;;;;;;;16.10;100.00;102028.31;4999528;28;20028;-30
2022/06/10 07:37:57;;;;;;;;;;;;;;;16.14;100.00;102032.19;4999052;28;19921;-30
2022/06/10 07:43:32;;;;;;;;;;;;;;;16.08;100.00;102027.78;5002897;28;19921;-30
2022/06/10 07:46:00;;;;;;;;;;;;;;;16.07;100.00;102026.09;5002809;28;19921;-30
2022/06/10 07:48:30;;;;;;;;;;;;;;;16.09;100.00;102022.97;4997764;28;19980;-30
2022/06/10 07:50:58;;;;;;;;;;;;;;;16.11;100.00;102017.88;5012234;28;20301;-30
2022/06/10 07:53:25;;;;;;;;;;;;;;;16.18;100.00;102013.53;4997108;28;20000;-30
2022/06/10 07:55:53;;;;;;;;;;;;;;;16.27;100.00;102019.28;4999426;28;19928;-29
2022/06/10 07:58:20;;;;;;;;;;;;;;;16.31;100.00;102020.31;4999307;28;20234;-29
2022/06/10 08:00:48;;;;;;;;;;;;;;;16.34;100.00;102025.34;5000634;28;19932;-29
2022/06/10 08:03:16;;;;;;;;;;;;;;;16.39;100.00;102015.94;5000603;28;20024;-29
2022/06/10 08:05:46;;;;;;;;;;;;;;;16.43;100.00;102020.66;5001779;28;19984;-29
2022/06/10 08:08:15;;;;;;;;;;;;;;;16.47;100.00;102027.34;4999834;28;20240;-29
2022/06/10 08:10:45;;;;;;;;;;;;;;;16.49;100.00;102015.75;5001849;28;19984;-29
2022/06/10 08:13:13;;;;;;;;;;;;;;;16.52;100.00;102013.16;5000840;28;19922;-31
2022/06/10 08:15:41;;;;;;;;;;;;;;;16.58;100.00;102013.91;5000866;28;19941;-29
2022/06/10 08:18:10;;;;;;;;;;;;;;;16.62;100.00;102014.94;5000312;28;19921;-31
2022/06/10 08:23:26;;;;;;;;;;;;;;;16.75;100.00;102016.16;4999968;28;20012;-30
2022/06/10 08:25:54;;;;;;;;;;;;;;;16.79;100.00;102018.00;5002425;28;19969;-29
2022/06/10 08:28:22;;;;;;;;;;;;;;;16.82;100.00;102011.75;5003719;28;19925;-30
2022/06/10 08:30:49;;;;;;;;;;;;;;;16.77;100.00;102011.88;5001105;28;20293;-32
2022/06/10 08:33:17;;;;;;;;;;;;;;;16.76;100.00;102015.00;5000909;28;20369;-31
2022/06/10 08:35:45;;;;;;;;;;;;;;;16.71;100.00;102017.91;4999952;28;20016;-30
2022/06/10 08:38:15;;;;;;;;;;;;;;;16.73;100.00;102021.25;4999080;28;19921;-31
2022/06/10 08:40:52;;;;;;;;;;;;;;;16.79;100.00;102022.81;4998518;28;19968;-31
2022/06/10 08:43:29;;;;;;;;;;;;;;;16.83;100.00;102027.50;5003472;28;20023;-30
2022/06/10 08:46:01;;;;;;;;;;;;;;;16.87;100.00;102020.09;4988669;28;19922;-30
2022/06/10 08:48:33;;;;;;;;;;;;;;;16.92;100.00;102023.97;4998809;28;19929;-30
2022/06/10 08:51:08;;;;;;;;;;;;;;;16.95;100.00;102026.16;4998692;28;19966;-30
2022/06/10 08:53:53;;;;;;;;;;;;;;;16.96;100.00;102016.56;4999167;28;19968;-32
2022/06/10 08:56:27;;;;;;;;;;;;;;;16.96;100.00;102014.56;4999159;28;20313;-28
2022/06/10 08:58:59;;;;;;;;;;;;;;;16.99;100.00;102018.72;4999045;28;19928;-31
2022/06/10 09:01:29;;;;;;;;;;;;;;;17.01;100.00;102019.25;4999045;28;19992;-32
2022/06/10 09:04:02;;;;;;;;;;;;;;;17.03;100.00;102023.44;4997906;28;20303;-30
2022/06/10 09:06:32;;;;;;;;;;;;;;;17.03;100.00;102019.78;4998685;28;20021;-30
2022/06/10 09:09:02;;;;;;;;;;;;;;;16.97;100.00;102013.44;4999123;28;19921;-29
2022/06/10 09:11:34;;;;;;;;;;;;;;;16.94;100.00;102016.03;4998949;28;19921;-29
2022/06/10 09:14:05;;;;;;;;;;;;;;;16.84;100.00;102017.91;5003126;28;19928;-30
2022/06/10 09:16:36;;;;;;;;;;;;;;;16.85;100.00;102019.56;5000157;28;19964;-29
2022/06/10 09:19:08;;;;;;;;;;;;;;;16.93;100.00;102025.63;4998373;28;19936;-29
2022/06/10 09:21:40;;;;;;;;;;;;;;;16.96;100.00;102025.00;5014863;28;19969;-29
2022/06/10 09:24:10;;;;;;;;;;;;;;;16.96;100.00;102039.13;4992565;28;19926;-28
2022/06/10 09:26:41;;;;;;;;;;;;;;;16.99;100.00;102028.00;5002627;28;20393;-29
2022/06/10 09:29:09;;;;;;;;;;;;;;;17.06;100.00;102021.97;5002846;28;19980;-29
2022/06/10 09:31:40;;;;;;;;;;;;;;;17.14;100.00;102029.69;5001612;28;19925;-29
2022/06/10 09:34:16;;;;;;;;;;;;;;;17.23;100.00;102020.16;5003767;28;20286;-29
2022/06/10 09:36:49;;;;;;;;;;;;;;;17.34;100.00;102028.41;5003852;28;20294;-32
2022/06/10 09:42:11;;;;;;;;;;;;;;;17.51;100.00;102028.56;5003373;28;20020;-31
2022/06/10 09:44:44;;;;;;;;;;;;;;;17.51;100.00;102037.03;5003282;28;19931;-32
2022/06/10 09:47:18;;;;;;;;;;;;;;;17.60;100.00;102025.81;5003315;28;20028;-29
2022/06/10 09:50:00;;;;;;;;;;;;;;;17.79;100.00;102021.69;5002960;28;19925;-29
2022/06/10 09:52:31;;;;;;;;;;;;;;;18.07;100.00;102028.06;5005996;28;19936;-34
2022/06/10 09:55:16;;;;;;;;;;;;;;;18.36;100.00;102023.94;5007525;28;19964;-29
2022/06/10 09:57:55;;;;;;;;;;;;;;;18.73;100.00;102037.66;5006295;28;19928;-29
2022/06/10 10:00:25;;;;;;;;;;;;;;;18.98;100.00;102026.75;5006273;28;19922;-30
2022/06/10 10:03:03;;;;;;;;;;;;;;;19.20;100.00;102018.97;5007244;28;19949;-29
2022/06/10 10:05:37;;;;;;;;;;;;;;;19.55;100.00;102019.91;5007579;28;19921;-30
2022/06/10 10:08:10;;;;;;;;;;;;;;;19.77;100.00;102030.25;5006524;28;19959;-30
2022/06/10 10:10:40;;;;;;;;;;;;;;;19.73;100.00;102031.25;5006721;28;19931;-29
2022/06/10 10:13:41;;;;;;;;;;;;;;;19.85;100.00;102037.06;5006718;28;20012;-29
2022/06/10 10:16:16;;;;;;;;;;;;;;;19.87;100.00;102040.41;4973027;28;19926;-34
2022/06/10 10:18:48;;;;;;;;;;;;;;;19.75;100.00;102037.41;4970568;28;20442;-33
2022/06/10 10:21:20;;;;;;;;;;;;;;;19.59;100.00;102042.72;4987491;28;20259;-29
2022/06/10 10:23:48;;;;;;;;;;;;;;;19.29;100.00;102038.81;4997064;28;20370;-30
2022/06/10 10:26:20;;;;;;;;;;;;;;;19.06;100.00;102051.41;5006630;28;19921;-28
2022/06/10 10:28:50;;;;;;;;;;;;;;;18.87;100.00;102046.00;5000081;28;19925;-29
2022/06/10 10:31:21;;;;;;;;;;;;;;;18.74;100.00;102038.47;5001767;28;19921;-29
2022/06/10 10:33:55;;;;;;;;;;;;;;;18.74;100.00;102042.13;5001784;28;19933;-29
2022/06/10 10:36:25;;;;;;;;;;;;;;;18.88;100.00;102054.16;5000667;28;19922;-31
2022/06/10 10:38:53;;;;;;;;;;;;;;;19.00;100.00;102045.03;5001849;28;19922;-29
2022/06/10 10:41:28;;;;;;;;;;;;;;;19.25;100.00;102047.13;5001172;28;19926;-28
2022/06/10 10:43:58;;;;;;;;;;;;;;;19.56;100.00;102057.56;5000718;28;19921;-29
2022/06/10 10:46:32;;;;;;;;;;;;;;;19.75;100.00;102051.56;5002011;28;19976;-29
2022/06/10 10:49:04;;;;;;;;;;;;;;;19.82;100.00;102083.06;5002220;28;19925;-29
2022/06/10 10:51:36;;;;;;;;;;;;;;;19.87;100.00;102046.91;5004954;28;19922;-29
2022/06/10 10:54:22;;;;;;;;;;;;;;;20.10;100.00;102061.72;5004087;28;19925;-29
2022/06/10 10:56:50;;;;;;;;;;;;;;;20.23;100.00;102055.03;5004891;28;20016;-32
2022/06/10 10:59:26;;;;;;;;;;;;;;;20.48;100.00;102052.53;5005965;28;19921;-30
2022/06/10 11:01:55;;;;;;;;;;;;;;;20.88;100.00;102059.56;4999983;28;19926;-30
2022/06/10 11:04:27;;;;;;;;;;;;;;;20.93;100.00;102062.22;5004715;28;20036;-32
2022/06/10 11:07:04;;;;;;;;;;;;;;;20.88;100.00;102072.91;5004719;28;19922;-29
2022/06/10 11:09:52;;;;;;;;;;;;;;;20.89;100.00;102066.06;5005344;28;20386;-30
2022/06/10 11:12:22;;;;;;;;;;;;;;;20.76;100.00;102075.66;5005751;28;19921;-30
2022/06/10 11:14:57;;;;;;;;;;;;;;;20.56;100.00;102082.88;5005600;28;19921;-30
2022/06/10 11:17:27;;;;;;;;;;;;;;;20.44;100.00;102068.53;5004165;28;19932;-30
2022/06/10 11:19:58;;;;;;;;;;;;;;;20.34;100.00;102064.03;5005510;28;19928;-29
2022/06/10 11:22:28;;;;;;;;;;;;;;;20.21;100.00;102063.03;5001971;28;19941;-34
2022/06/10 11:25:17;;;;;;;;;;;;;;;20.11;100.00;102069.06;5002668;28;19926;-28
2022/06/10 11:27:57;;;;;;;;;;;;;;;20.06;100.00;102069.22;5004438;28;20020;-30
2022/06/10 11:30:32;;;;;;;;;;;;;;;20.06;100.00;102066.41;5002936;28;19925;-29
2022/06/10 11:33:02;;;;;;;;;;;;;;;20.02;100.00;102076.72;5004123;28;19925;-33
2022/06/10 11:35:32;;;;;;;;;;;;;;;19.90;100.00;102080.25;5005144;28;19936;-30
2022/06/10 11:38:02;;;;;;;;;;;;;;;19.93;100.00;102067.41;5002725;28;19925;-29
2022/06/10 11:40:37;;;;;;;;;;;;;;;20.04;100.00;102067.88;5002825;28;20387;-31
2022/06/10 11:43:10;;;;;;;;;;;;;;;20.04;100.00;102065.06;5001923;28;20327;-31
2022/06/10 11:45:39;;;;;;;;;;;;;;;19.95;100.00;102065.91;4999940;28;19921;-29
2022/06/10 11:48:14;;;;;;;;;;;;;;;19.82;100.00;102071.72;5002100;28;19926;-33
2022/06/10 11:50:47;;;;;;;;;;;;;;;19.76;100.00;102070.25;5000876;28;19922;-29
2022/06/10 11:53:19;;;;;;;;;;;;;;;19.68;100.00;102071.88;5001738;28;20008;-34
2022/06/10 11:55:49;;;;;;;;;;;;;;;19.53;100.00;102066.72;5000871;28;19925;-30
2022/06/10 12:01:08;;;;;;;;;;;;;;;19.41;100.00;102067.31;4999709;28;20012;-32
2022/06/10 12:03:41;;;;;;;;;;;;;;;19.65;100.00;102055.56;5001873;28;19929;-30
2022/06/10 12:06:10;;;;;;;;;;;;;;;19.87;100.00;102068.72;4999938;28;19992;-29
2022/06/10 12:08:41;;;;;;;;;;;;;;;20.05;100.00;102067.56;5002101;28;19921;-29
2022/06/10 12:11:18;;;;;;;;;;;;;;;20.24;100.00;102064.38;5000146;28;19926;-31
2022/06/10 12:13:51;;;;;;;;;;;;;;;20.35;100.00;102070.53;5001413;28;19925;-30
2022/06/10 12:16:19;;;;;;;;;;;;;;;20.34;100.00;102060.38;5003050;28;19925;-29
2022/06/10 12:18:50;;;;;;;;;;;;;;;20.44;100.00;102072.22;5001457;28;19925;-31
2022/06/10 12:21:19;;;;;;;;;;;;;;;20.57;100.00;102070.38;5002474;28;19925;-30
2022/06/10 12:23:47;;;;;;;;;;;;;;;20.70;100.00;102074.16;5004653;28;19929;-29
2022/06/10 12:26:24;;;;;;;;;;;;;;;20.88;100.00;102070.09;4998636;28;19933;-30
2022/06/10 12:28:55;;;;;;;;;;;;;;;21.20;100.00;102065.78;4998901;28;19932;-30
2022/06/10 12:31:32;;;;;;;;;;;;;;;21.40;100.00;102082.03;4988675;28;19927;-29
2022/06/10 12:34:03;;;;;;;;;;;;;;;21.45;99.40;102067.63;5001474;28;19921;-30
2022/06/10 12:36:34;;;;;;;;;;;;;;;21.38;96.28;102090.09;4999278;28;21787;-33
2022/06/10 12:39:02;;;;;;;;;;;;;;;;;;4998543;28;20397;-30
2022/06/10 12:41:35;;;;;;;;;;;;;;;21.27;95.45;102088.78;4992198;28;19999;-31
2022/06/10 12:44:06;;;;;;;;;;;;;;;21.18;98.51;102080.28;5001975;28;19921;-29
2022/06/10 12:46:38;;;;;;;;;;;;;;;21.31;98.34;102079.25;4992507;28;19948;-30
2022/06/10 12:49:09;;;;;;;;;;;;;;;21.47;97.71;102087.19;4998109;28;19972;-30
2022/06/10 12:51:39;;;;;;;;;;;;;;;21.56;95.59;102066.09;4997513;28;20297;-29
2022/06/10 12:54:13;;;;;;;;;;;;;;;21.76;96.88;102070.13;5003585;28;19922;-29
2022/06/10 12:56:41;;;;;;;;;;;;;;;22.00;96.32;102073.09;5002918;28;19925;-30
2022/06/10 12:59:20;;;;;;;;;;;;;;;22.11;91.71;102067.84;5003282;28;19922;-29
2022/06/10 13:01:48;;;;;;;;;;;;;;;22.01;89.18;102079.63;5000918;28;19976;-30
2022/06/10 13:04:37;;;;;;;;;;;;;;;21.77;91.09;102080.31;5001831;28;19922;-33
2022/06/10 13:07:05;;;;;;;;;;;;;;;21.53;91.96;102092.31;5003238;28;19925;-30